Latest Weather Observations for Ivanhoe Airport

IDN60801

Issued at 1:35 pm EDT Wednesday 26 November 2014 (issued every 30 minutes, with the page automatically refreshed every 10 minutes)

About weather observations | Map of weather stations | Latest weather observations for NSW | Other Formats
Station Details ID: 049000 Name: IVANHOE AERODROME AWS Lat: -32.88 Lon: 144.31 Height: 100.0 m
Data from the previous 72 hours. | See also: Recent months at Ivanhoe Airport
Date/Time
EDT
Temp
°C
App
Temp
°C
Dew
Point
Rel
Hum
%
Delta-T
°C
Wind Press
QNH
hPa
Press
MSL
hPa
Rain
since 9 am
mm
Dir
 
Spd
km/h
Gust
km/h
Spd
kts
Gust
kts
26/01:30pm 27.1 21.7 2.2 20 12.1 S 20 30 11 16 1019.1 1018.7 0.0
26/01:00pm 26.8 21.1 2.7 21 11.8 S 22 32 12 17 1019.5 1019.1 0.0
26/12:30pm 26.4 21.9 2.3 21 11.7 S 15 30 8 16 1019.6 1019.2 0.0
26/12:00pm 26.0 21.7 3.3 23 11.2 S 15 26 8 14 1019.9 1019.5 0.0
26/11:30am 25.3 21.4 3.3 24 10.8 SSE 13 24 7 13 1020.1 1019.7 0.0
26/11:00am 24.7 21.3 3.9 26 10.3 SSW 11 20 6 11 1020.2 1019.8 0.0
26/10:30am 23.4 20.7 3.9 28 9.6 W 7 11 4 6 1020.3 1019.9 0.0
26/10:00am 22.7 20.3 5.2 32 8.7 S 7 13 4 7 1020.3 1019.9 0.0
26/09:30am 21.5 18.8 5.4 35 8.0 S 9 15 5 8 1020.3 1019.9 0.0
26/09:00am 20.0 17.0 6.0 40 7.0 SSE 11 15 6 8 1020.3 1019.9 0.0
26/08:30am 18.6 14.9 6.4 45 6.1 S 15 20 8 11 1020.1 1019.7 0.0
26/08:00am 17.5 13.9 6.7 49 5.4 S 15 20 8 11 1019.9 1019.5 0.0
26/07:30am 15.9 11.8 6.3 53 4.7 SSW 17 24 9 13 1019.6 1019.2 0.0
26/07:00am 14.1 10.8 6.5 60 3.7 SSW 13 19 7 10 1019.3 1018.9 0.0
26/06:30am 12.5 8.8 6.1 65 3.0 SSW 15 17 8 9 1018.9 1018.5 0.0
26/06:00am 11.5 8.5 6.2 70 2.5 SW 11 15 6 8 1018.7 1018.3 0.0
26/05:30am 11.9 8.9 6.2 68 2.7 SW 11 11 6 6 1018.5 1018.1 0.0
26/05:00am 11.7 8.7 6.2 69 2.6 SSW 11 13 6 7 1018.5 1018.1 0.0
26/04:30am 12.8 10.4 4.3 56 3.9 E 6 6 3 3 1018.3 1017.9 0.0
26/04:00am 13.5 11.3 5.4 58 3.8 E 6 7 3 4 1018.1 1017.7 0.0
26/03:30am 14.6 11.5 5.4 54 4.4 E 11 11 6 6 1018.2 1017.8 0.0
26/03:00am 14.7 12.0 5.5 54 4.4 E 9 11 5 6 1018.3 1017.9 0.0
26/02:30am 15.3 12.1 5.2 51 4.8 E 11 13 6 7 1018.4 1018.0 0.0
26/02:00am 15.5 12.7 5.1 50 4.9 E 9 11 5 6 1018.7 1018.3 0.0
26/01:30am 16.1 13.3 5.1 48 5.2 ESE 9 13 5 7 1018.8 1018.4 0.0
26/01:00am 16.8 13.5 4.5 44 5.8 SE 11 13 6 7 1018.9 1018.5 0.0
26/12:30am 17.5 14.5 4.1 41 6.3 SSE 9 11 5 6 1019.4 1019.0 0.0
26/12:00am 17.7 14.4 4.3 41 6.3 SSE 11 13 6 7 1019.7 1019.3 0.0
 
Date/Time
EDT
Temp
°C
App
Temp
°C
Dew
Point
Rel
Hum
%
Delta-T
°C
Wind Press
QNH
hPa
Press
MSL
hPa
Rain
since 9 am
mm
Dir
 
Spd
km/h
Gust
km/h
Spd
kts
Gust
kts
25/11:30pm 18.2 14.8 4.0 39 6.7 SSE 11 13 6 7 1019.9 1019.5 0.0
25/11:00pm 17.9 14.9 4.1 40 6.5 S 9 11 5 6 1020.1 1019.7 0.0
25/10:30pm 18.4 15.4 4.2 39 6.8 S 9 11 5 6 1020.2 1019.8 0.0
25/10:00pm 19.0 16.0 4.0 37 7.1 S 9 11 5 6 1019.9 1019.5 0.0
25/09:30pm 19.6 16.2 4.1 36 7.4 S 11 13 6 7 1019.6 1019.2 0.0
25/09:00pm 20.2 16.7 3.4 33 8.0 S 11 13 6 7 1019.4 1019.0 0.0
25/08:30pm 21.4 17.7 2.6 29 8.9 S 11 15 6 8 1019.2 1018.8 0.0
25/08:00pm 22.6 18.0 1.6 25 9.8 S 15 24 8 13 1018.8 1018.4 0.0
25/07:30pm 23.7 19.2 2.0 24 10.3 SSW 15 20 8 11 1018.6 1018.2 0.0
25/07:00pm 24.1 18.8 1.7 23 10.6 S 19 26 10 14 1018.2 1017.8 0.0
25/06:30pm 24.2 18.7 0.5 21 11.0 S 19 24 10 13 1018.1 1017.7 0.0
25/06:00pm 24.7 19.6 0.9 21 11.1 S 17 26 9 14 1018.0 1017.6 0.0
25/05:30pm 24.9 19.6 1.7 22 11.1 S 19 30 10 16 1018.0 1017.6 0.0
25/05:00pm 24.3 18.7 1.2 22 10.8 S 20 32 11 17 1018.3 1017.9 0.0
25/04:30pm 24.2 18.9 1.8 23 10.6 S 19 30 10 16 1018.5 1018.1 0.0
25/04:00pm 24.4 18.4 1.3 22 10.9 SSW 22 32 12 17 1018.8 1018.4 0.0
25/03:30pm 24.3 18.1 1.9 23 10.7 S 24 32 13 17 1018.9 1018.5 0.0
25/03:00pm 24.2 18.8 1.2 22 10.8 S 19 28 10 15 1019.1 1018.7 0.0
25/02:30pm 23.4 17.4 1.1 23 10.4 S 22 32 12 17 1019.2 1018.8 0.0
25/02:00pm 23.5 17.9 1.2 23 10.4 SSW 20 28 11 15 1019.5 1019.1 0.0
25/01:30pm 22.9 17.4 1.8 25 9.9 SSE 20 26 11 14 1019.6 1019.2 0.0
25/01:00pm 22.3 17.0 2.9 28 9.3 S 20 32 11 17 1019.7 1019.3 0.0
25/12:30pm 21.9 15.8 2.6 28 9.2 S 24 37 13 20 1019.9 1019.5 0.0
25/12:00pm 20.7 15.6 3.9 33 8.1 S 20 32 11 17 1020.2 1019.8 0.0
25/11:30am 20.1 14.7 4.6 36 7.5 S 22 33 12 18 1020.4 1020.0 0.0
25/11:00am 19.2 14.7 6.3 43 6.4 S 19 26 10 14 1020.7 1020.3 0.0
25/10:30am 17.9 13.0 6.7 48 5.6 S 22 32 12 17 1020.9 1020.5 0.0
25/10:00am 16.8 12.7 8.0 56 4.5 S 19 26 10 14 1021.0 1020.6 0.0
25/09:30am 15.5 10.9 6.5 55 4.4 SSE 20 30 11 16 1020.9 1020.5 0.0
25/09:00am 15.4 10.9 6.9 57 4.2 S 20 30 11 16 1020.5 1020.1 9.4
25/08:30am 14.5 9.2 6.8 60 3.8 S 24 33 13 18 1020.4 1020.0 9.4
25/08:00am 14.0 10.4 6.8 62 3.5 S 15 20 8 11 1020.1 1019.7 9.4
25/07:30am 13.3 9.4 7.1 66 3.0 S 17 26 9 14 1019.6 1019.2 9.4
25/07:00am 12.2 9.0 6.9 70 2.5 S 13 17 7 9 1019.3 1018.9 9.4
25/06:30am 11.5 7.5 6.8 73 2.2 SSW 17 22 9 12 1018.9 1018.5 9.4
25/06:00am 11.5 7.5 6.8 73 2.2 SSW 17 22 9 12 1018.2 1017.8 9.4
25/05:30am 12.0 8.0 6.7 70 2.5 SSW 17 22 9 12 1017.8 1017.4 9.4
25/05:00am 12.7 8.2 7.0 68 2.8 SSW 20 28 11 15 1017.6 1017.2 9.4
25/04:30am 13.0 9.1 7.2 68 2.8 SSW 17 24 9 13 1017.5 1017.1 9.4
25/04:00am 13.7 9.3 7.2 65 3.2 SSW 20 26 11 14 1017.0 1016.5 9.4
25/03:30am 14.4 10.1 7.0 61 3.6 SSW 19 30 10 16 1016.7 1016.2 9.4
25/03:00am 15.3 11.2 8.8 65 3.3 SSW 20 32 11 17 1016.6 1016.1 9.4
25/02:30am 16.0 11.5 8.7 62 3.7 SSW 22 30 12 16 1016.3 1015.9 9.4
25/02:00am 16.9 11.8 9.3 61 4.0 SSW 26 39 14 21 1015.9 1015.5 9.4
25/01:30am 17.4 14.0 11.2 67 3.4 SSW 20 30 11 16 1015.7 1015.3 9.4
25/01:00am 17.9 14.0 12.1 69 3.2 SSW 24 35 13 19 1015.7 1015.3 9.4
25/12:30am 18.4 14.2 12.4 68 3.4 SSW 26 35 14 19 1015.5 1015.1 9.4
25/12:00am 19.0 15.4 13.0 68 3.4 SSW 24 35 13 19 1015.4 1015.0 9.4
 
Date/Time
EDT
Temp
°C
App
Temp
°C
Dew
Point
Rel
Hum
%
Delta-T
°C
Wind Press
QNH
hPa
Press
MSL
hPa
Rain
since 9 am
mm
Dir
 
Spd
km/h
Gust
km/h
Spd
kts
Gust
kts
24/11:30pm 19.9 15.8 14.9 73 2.9 SSW 30 39 16 21 1014.7 1014.3 9.4
24/11:00pm 20.5 21.4 19.3 93 0.8 SW 13 22 7 12 1014.0 1013.6 9.4
24/10:30pm 20.8 23.2 19.6 93 0.8 W 6 9 3 5 1013.6 1013.2 9.4
24/10:00pm 20.8 23.4 20.1 96 0.5 W 6 7 3 4 1013.0 1012.6 9.4
24/09:30pm 20.7 22.7 20.0 96 0.4 WSW 9 13 5 7 1012.3 1011.9 9.4
24/09:00pm 20.5 22.3 20.3 99 0.1 SSW 11 13 6 7 1010.9 1010.5 9.4
24/08:30pm 20.6 24.2 19.8 95 0.5 CALM 0 0 0 0 1010.7 1010.3 8.2
24/08:00pm 20.6 22.8 20.4 99 0.1 ENE 9 17 5 9 1010.0 1009.6 8.2
24/07:30pm 20.0 21.6 19.2 95 0.5 NNW 9 17 5 9 1010.0 1009.6 6.8
24/07:00pm 19.9 18.5 18.9 94 0.6 SW 24 33 13 18 1009.3 1008.9 6.2
24/06:34pm 20.7 18.1 17.9 84 1.7 SW 28 46 15 25 1010.1 1009.7 5.6
24/06:30pm 20.6 18.3 18.4 87 1.4 SW 28 44 15 24 1009.9 1009.5 5.6
24/06:00pm 20.3 13.5 17.7 85 1.6 WSW 50 76 27 41 1009.5 1009.1 2.6
24/05:57pm 21.5 13.4 16.5 73 3.0 WSW 54 76 29 41 1009.4 1009.0 2.0
24/05:44pm 27.3 17.6 11.7 37 9.0 W 54 74 29 40 1009.0 1008.6 2.0
24/05:43pm 31.2 26.5 14.4 36 10.3 WNW 32 74 17 40 1008.6 1008.1 2.0
24/05:42pm 32.4 28.6 15.8 36 10.4 WNW 30 48 16 26 1008.0 1007.5 2.0
24/05:30pm 32.6 28.9 16.0 36 10.4 NW 30 41 16 22 1007.3 1006.8 2.0
24/05:00pm 33.6 31.0 16.0 34 11.1 NNW 24 39 13 21 1006.5 1006.0 2.0
24/04:30pm 33.2 30.8 16.5 36 10.6 N 24 43 13 23 1006.4 1005.9 1.8
24/04:00pm 31.9 30.0 16.6 39 9.7 NNW 22 35 12 19 1007.2 1006.7 1.8
24/03:30pm 31.0 28.2 15.4 38 9.7 N 24 37 13 20 1007.7 1007.2 1.8
24/03:00pm 31.4 28.8 15.0 37 10.1 N 22 35 12 19 1008.1 1007.6 1.8
24/02:30pm 30.9 28.8 15.3 38 9.7 N 20 28 11 15 1008.8 1008.4 1.8
24/02:00pm 29.5 28.8 17.3 47 7.7 NNE 17 22 9 12 1009.3 1008.9 1.8
24/01:30pm 27.7 26.6 17.2 52 6.6 ENE 19 26 10 14 1009.7 1009.3 1.8
24/01:00pm 27.1 25.9 18.4 59 5.6 E 22 26 12 14 1009.9 1009.5 1.8
24/12:30pm 25.6 24.7 18.3 64 4.6 E 20 26 11 14 1010.0 1009.6 1.8
24/12:00pm 22.9 22.3 18.4 76 2.8 SE 19 26 10 14 1010.8 1010.4 1.8
24/11:30am 21.8 22.1 18.0 79 2.4 SSE 13 20 7 11 1011.2 1010.8 1.8
24/11:00am 22.6 21.9 17.3 72 3.3 S 17 26 9 14 1011.8 1011.4 1.2
24/10:30am 22.7 21.7 16.7 69 3.7 S 17 24 9 13 1012.3 1011.9 1.2
24/10:00am 21.2 21.1 17.8 81 2.1 S 15 20 8 11 1012.6 1012.2 1.2
24/09:30am 19.6 19.5 17.9 90 1.1 S 15 20 8 11 1013.3 1012.9 1.2
24/09:00am 20.3 20.2 17.9 86 1.5 SW 15 22 8 12 1013.4 1013.0 1.4
24/08:30am 21.8 21.2 15.6 68 3.7 WSW 13 15 7 8 1013.1 1012.7 0.4
24/08:00am 23.9 23.6 14.3 55 5.7 W 9 13 5 7 1012.6 1012.2 0.2
24/07:30am 25.5 24.7 11.7 42 7.9 NE 7 11 4 6 1011.8 1011.4 0.0
24/07:00am 25.0 23.6 12.2 44 7.4 ENE 11 13 6 7 1011.3 1010.9 0.0
24/06:30am 25.1 23.3 12.0 44 7.5 ENE 13 20 7 11 1011.5 1011.1 0.0
24/06:00am 25.0 21.1 12.2 44 7.4 E 24 33 13 18 1011.3 1010.9 0.0
24/05:30am 25.0 20.9 12.6 46 7.2 ENE 26 32 14 17 1011.5 1011.1 0.0
24/05:00am 25.5 23.9 12.7 45 7.4 E 13 17 7 9 1012.3 1011.9 0.0
24/04:30am 25.8 24.9 12.6 44 7.7 ENE 9 13 5 7 1012.1 1011.7 0.0
24/04:00am 26.9 25.3 10.2 35 9.4 S 9 17 5 9 1011.2 1010.8 0.0
24/03:30am 27.2 25.3 9.1 32 10.0 SSW 9 11 5 6 1010.8 1010.4 0.0
24/03:00am 28.2 25.1 9.0 30 10.6 SSE 15 19 8 10 1010.2 1009.8 0.0
24/02:30am 27.8 24.8 9.1 31 10.3 SSE 15 22 8 12 1010.2 1009.8 0.0
24/02:00am 27.4 24.8 9.3 32 10.0 S 13 19 7 10 1011.2 1010.8 0.0
24/01:30am 27.7 25.0 9.0 31 10.3 SSW 13 19 7 10 1011.6 1011.2 0.0
24/01:00am 27.9 26.3 8.7 30 10.6 ESE 7 9 4 5 1011.4 1011.0 0.0
24/12:30am 28.0 26.4 8.8 30 10.6 SSE 7 11 4 6 1011.5 1011.1 0.0
24/12:00am 28.5 26.1 8.7 29 10.9 SSE 11 13 6 7 1011.4 1011.0 0.0
 
Date/Time
EDT
Temp
°C
App
Temp
°C
Dew
Point
Rel
Hum
%
Delta-T
°C
Wind Press
QNH
hPa
Press
MSL
hPa
Rain
since 9 am
mm
Dir
 
Spd
km/h
Gust
km/h
Spd
kts
Gust
kts
23/11:30pm 28.8 25.2 8.5 28 11.2 SSE 17 22 9 12 1011.0 1010.6 0.0
23/11:00pm 28.3 26.7 8.6 29 10.8 S 7 9 4 5 1012.6 1012.2 0.0
23/10:30pm 29.2 27.6 8.8 28 11.3 SSE 7 11 4 6 1012.7 1012.3 0.0
23/10:00pm 29.6 27.4 9.2 28 11.4 SSE 11 13 6 7 1012.5 1012.1 0.0
23/09:30pm 30.3 27.8 9.8 28 11.6 SSW 13 17 7 9 1012.6 1012.2 0.0
23/09:00pm 30.9 28.2 10.3 28 11.8 S 15 24 8 13 1011.9 1011.5 0.0
23/08:30pm 31.0 27.8 11.4 30 11.4 SSE 19 26 10 14 1011.0 1010.6 0.0
23/08:00pm 31.1 28.1 12.5 32 11.0 S 20 30 11 16 1010.8 1010.4 0.0
23/07:30pm 31.6 28.0 12.9 32 11.2 SSW 24 33 13 18 1010.1 1009.7 0.0
23/07:00pm 32.2 28.1 13.9 33 11.2 SSW 28 41 15 22 1009.7 1009.3 0.0
23/06:30pm 34.1 29.3 13.0 28 12.8 SSW 30 43 16 23 1009.6 1009.2 0.0
23/06:00pm 35.2 31.3 12.2 25 13.8 SW 24 33 13 18 1009.4 1009.0 0.0
23/05:30pm 36.3 32.0 13.1 25 14.2 SW 28 39 15 21 1009.3 1008.9 0.0
23/05:00pm 37.2 33.2 11.9 22 15.3 WSW 24 37 13 20 1009.5 1009.1 0.0
23/04:30pm 37.5 34.8 12.8 22 15.1 SW 19 26 10 14 1009.5 1009.1 0.0
23/04:00pm 36.7 34.3 12.8 24 14.6 SW 17 28 9 15 1009.5 1009.1 0.0
23/03:30pm 37.0 34.7 13.1 24 14.6 SSW 17 26 9 14 1009.6 1009.2 0.0
23/03:00pm 36.8 34.1 12.9 24 14.6 SSW 19 28 10 15 1009.9 1009.5 0.0
23/02:30pm 35.0 31.3 12.6 26 13.5 SSW 24 35 13 19 1009.9 1009.5 0.0
23/02:00pm 35.0 32.2 12.6 26 13.5 WSW 19 26 10 14 1010.2 1009.8 0.0

Other Formats:

Comma delimited format used in spreadsheet applications
http://www.bom.gov.au/fwo/IDN60801/IDN60801.95697.axf

JavaScript Object Notation format (JSON) in row-major order
http://www.bom.gov.au/fwo/IDN60801/IDN60801.95697.json